createdAt,value
2022-10-05T00:01:30.066Z,99.90
2022-10-05T00:04:11.248Z,99.90
2022-10-05T00:06:39.786Z,99.90
2022-10-05T00:09:16.328Z,99.90
2022-10-05T00:11:45.545Z,99.90
2022-10-05T00:14:19.679Z,99.90
2022-10-05T00:16:50.137Z,99.90
2022-10-05T00:19:26.765Z,99.90
2022-10-05T00:21:58.177Z,99.90
2022-10-05T00:24:26.467Z,99.90
2022-10-05T00:26:58.031Z,99.90
2022-10-05T00:29:26.650Z,99.90
2022-10-05T00:31:56.329Z,99.90
2022-10-05T00:34:24.794Z,99.90
2022-10-05T00:36:53.102Z,99.90
2022-10-05T00:39:21.501Z,99.90
2022-10-05T00:42:17.235Z,99.90
2022-10-05T00:44:51.210Z,99.90
2022-10-05T00:47:37.441Z,99.90
2022-10-05T00:50:31.467Z,99.90
2022-10-05T00:53:12.902Z,99.90
2022-10-05T00:55:58.381Z,99.90
2022-10-05T00:58:39.613Z,99.90
2022-10-05T01:01:13.886Z,99.90
2022-10-05T01:04:01.545Z,99.90
2022-10-05T01:06:40.901Z,99.90
2022-10-05T01:09:19.411Z,99.90
2022-10-05T01:11:59.595Z,99.90
2022-10-05T01:14:38.397Z,99.90
2022-10-05T01:17:17.053Z,99.90
2022-10-05T01:20:11.179Z,99.90
2022-10-05T01:23:02.171Z,99.90
2022-10-05T01:25:39.318Z,99.90
2022-10-05T01:28:15.097Z,99.90
2022-10-05T01:30:53.765Z,99.90
2022-10-05T01:33:31.834Z,99.90
2022-10-05T01:36:12.809Z,99.90
2022-10-05T01:38:52.304Z,99.90
2022-10-05T01:41:31.858Z,99.90
2022-10-05T01:44:08.459Z,99.90
2022-10-05T01:46:44.480Z,99.90
2022-10-05T01:49:33.615Z,99.90
2022-10-05T01:52:22.498Z,99.90
2022-10-05T01:55:05.070Z,99.90
2022-10-05T01:57:48.876Z,99.90
2022-10-05T02:00:20.684Z,99.90
2022-10-05T02:02:53.622Z,99.90
2022-10-05T02:05:26.265Z,99.90
2022-10-05T02:08:01.042Z,99.90
2022-10-05T02:10:37.596Z,99.90
2022-10-05T02:13:13.724Z,99.90
2022-10-05T02:15:48.600Z,99.90
2022-10-05T02:18:24.359Z,99.90
2022-10-05T02:20:56.278Z,99.90
2022-10-05T02:23:28.166Z,99.90
2022-10-05T02:25:59.434Z,99.90
2022-10-05T02:28:34.973Z,99.90
2022-10-05T02:31:09.816Z,99.90
2022-10-05T02:33:39.216Z,99.90
2022-10-05T02:36:16.062Z,99.90
2022-10-05T02:39:08.662Z,99.90
2022-10-05T02:41:49.311Z,99.90
2022-10-05T02:44:34.419Z,99.90
2022-10-05T02:47:14.709Z,99.90
2022-10-05T02:49:50.306Z,99.90
2022-10-05T02:52:29.293Z,99.90
2022-10-05T02:55:06.925Z,99.90
2022-10-05T02:57:40.707Z,99.90
2022-10-05T03:00:15.395Z,99.90
2022-10-05T03:02:53.379Z,99.90
2022-10-05T03:05:27.242Z,99.90
2022-10-05T03:08:02.084Z,99.90
2022-10-05T03:10:38.110Z,99.90
2022-10-05T03:13:14.025Z,99.90
2022-10-05T03:16:12.832Z,99.90
2022-10-05T03:19:00.543Z,99.90
2022-10-05T03:21:49.680Z,99.90
2022-10-05T03:24:42.433Z,99.90
2022-10-05T03:27:25.740Z,99.90
2022-10-05T03:30:04.172Z,99.90
2022-10-05T03:32:46.305Z,99.90
2022-10-05T03:35:23.883Z,99.90
2022-10-05T03:38:06.350Z,99.90
2022-10-05T03:40:40.763Z,99.90
2022-10-05T03:43:47.776Z,99.90
2022-10-05T03:46:25.958Z,99.90
2022-10-05T03:49:02.254Z,99.90
2022-10-05T03:51:36.351Z,99.90
2022-10-05T03:54:17.642Z,99.90
2022-10-05T03:56:52.918Z,99.90
2022-10-05T03:59:31.547Z,99.90
2022-10-05T04:02:06.153Z,99.90
2022-10-05T04:04:41.750Z,99.90
2022-10-05T04:07:37.314Z,99.90
2022-10-05T04:10:15.665Z,99.90
2022-10-05T04:12:49.246Z,99.90
2022-10-05T04:15:25.504Z,99.90
2022-10-05T04:17:59.188Z,99.90
2022-10-05T04:20:35.579Z,99.90
2022-10-05T04:23:18.442Z,99.90
2022-10-05T04:25:49.974Z,99.90
2022-10-05T04:28:31.066Z,99.90
2022-10-05T04:31:04.767Z,99.90
2022-10-05T04:33:33.701Z,99.90
2022-10-05T04:36:23.423Z,99.90
2022-10-05T04:39:11.014Z,99.90
2022-10-05T04:42:05.569Z,99.90
2022-10-05T04:45:03.537Z,99.90
2022-10-05T04:48:17.919Z,99.90
2022-10-05T04:51:00.491Z,99.90
2022-10-05T04:53:34.927Z,99.90
2022-10-05T04:56:11.905Z,99.90
2022-10-05T04:59:01.602Z,99.90
2022-10-05T05:02:03.465Z,99.90
2022-10-05T05:04:57.113Z,99.90
2022-10-05T05:07:39.789Z,99.90
2022-10-05T05:10:44.929Z,99.90
2022-10-05T05:13:46.256Z,99.90
2022-10-05T05:16:26.341Z,99.90
2022-10-05T05:19:28.002Z,99.90
2022-10-05T05:22:04.237Z,99.90
2022-10-05T05:24:46.313Z,99.90
2022-10-05T05:27:49.944Z,99.90
2022-10-05T05:30:25.766Z,99.90
2022-10-05T05:33:16.565Z,99.90
2022-10-05T05:36:12.310Z,99.90
2022-10-05T05:38:46.410Z,99.90
2022-10-05T05:41:25.138Z,99.90
2022-10-05T05:44:05.830Z,99.90
2022-10-05T05:47:02.359Z,99.90
2022-10-05T05:49:41.468Z,99.90
2022-10-05T05:52:18.343Z,99.90
2022-10-05T05:54:53.404Z,99.90
2022-10-05T05:57:28.829Z,99.90
2022-10-05T06:00:06.591Z,99.90
2022-10-05T06:02:42.060Z,99.90
2022-10-05T06:05:29.964Z,99.90
2022-10-05T06:08:04.314Z,99.90
2022-10-05T06:10:41.521Z,99.90
2022-10-05T06:13:19.044Z,99.90
2022-10-05T06:15:54.190Z,99.90
2022-10-05T06:18:24.493Z,99.90
2022-10-05T06:20:59.575Z,99.90
2022-10-05T06:23:36.826Z,99.90
2022-10-05T06:26:18.479Z,99.90
2022-10-05T06:28:53.083Z,99.90
2022-10-05T06:31:37.917Z,99.90
2022-10-05T06:34:25.011Z,99.90
2022-10-05T06:37:01.083Z,99.90
2022-10-05T06:40:00.749Z,99.90
2022-10-05T06:43:06.602Z,99.90
2022-10-05T06:45:53.226Z,99.90
2022-10-05T06:48:35.531Z,99.90
2022-10-05T06:51:18.757Z,99.90
2022-10-05T06:54:00.911Z,99.90
2022-10-05T06:56:38.910Z,99.90
2022-10-05T06:59:17.364Z,99.90
2022-10-05T07:01:57.024Z,99.90
2022-10-05T07:05:00.372Z,99.90
2022-10-05T07:07:39.582Z,99.90
2022-10-05T07:10:25.094Z,99.90
2022-10-05T07:13:25.298Z,99.90
2022-10-05T07:16:02.722Z,99.90
2022-10-05T07:18:56.717Z,99.90
2022-10-05T07:21:39.352Z,99.90
2022-10-05T07:24:30.338Z,99.90
2022-10-05T07:27:13.682Z,99.90
2022-10-05T07:29:53.889Z,99.90
2022-10-05T07:32:35.512Z,99.90
2022-10-05T07:35:29.677Z,99.90
2022-10-05T07:38:05.619Z,99.90
2022-10-05T07:40:42.547Z,99.90
2022-10-05T07:43:40.119Z,99.90
2022-10-05T07:46:26.642Z,99.90
2022-10-05T07:49:03.286Z,99.90
2022-10-05T07:51:37.942Z,99.90
2022-10-05T07:54:19.133Z,99.90
2022-10-05T07:56:55.941Z,99.90
2022-10-05T07:59:33.703Z,99.90
2022-10-05T08:02:14.816Z,99.90
2022-10-05T08:04:56.603Z,99.90
2022-10-05T08:07:25.273Z,99.90
2022-10-05T08:10:00.467Z,99.90
2022-10-05T08:12:38.450Z,99.90
2022-10-05T08:15:15.361Z,99.90
2022-10-05T08:17:54.328Z,99.90
2022-10-05T08:20:40.968Z,99.90
2022-10-05T08:23:23.045Z,99.90
2022-10-05T08:26:15.853Z,99.90
2022-10-05T08:28:52.954Z,99.90
2022-10-05T08:31:27.834Z,99.90
2022-10-05T08:34:03.970Z,99.90
2022-10-05T08:36:55.776Z,99.90
2022-10-05T08:39:30.013Z,99.90
2022-10-05T08:42:52.363Z,99.90
2022-10-05T08:46:11.352Z,99.90
2022-10-05T08:49:38.311Z,99.90
2022-10-05T08:52:29.175Z,99.90
2022-10-05T08:55:47.530Z,99.90
2022-10-05T08:58:45.095Z,99.90
2022-10-05T09:01:26.618Z,99.90
2022-10-05T09:04:24.269Z,99.90
2022-10-05T09:07:28.381Z,99.90
2022-10-05T09:10:48.403Z,99.90
2022-10-05T09:13:36.738Z,99.90
2022-10-05T09:16:51.526Z,99.90
2022-10-05T09:20:16.704Z,99.90
2022-10-05T09:23:12.445Z,99.90
2022-10-05T09:25:58.746Z,99.90
2022-10-05T09:28:33.852Z,99.90
2022-10-05T09:31:54.405Z,99.90
2022-10-05T09:34:53.678Z,99.90
2022-10-05T09:38:03.039Z,99.90
2022-10-05T09:41:12.251Z,99.90
2022-10-05T09:44:13.858Z,99.90
2022-10-05T09:47:14.494Z,99.90
2022-10-05T09:50:27.493Z,99.90
2022-10-05T09:53:15.319Z,99.90
2022-10-05T09:56:23.346Z,99.90
2022-10-05T09:59:29.374Z,99.90
2022-10-05T10:02:19.979Z,99.90
2022-10-05T10:05:39.350Z,99.90
2022-10-05T10:08:37.434Z,99.90
2022-10-05T10:11:24.819Z,99.90
2022-10-05T10:14:33.975Z,99.90
2022-10-05T10:17:37.774Z,99.90
2022-10-05T10:20:47.145Z,99.90
2022-10-05T10:23:30.681Z,99.90
2022-10-05T10:26:42.549Z,99.90
2022-10-05T10:30:00.287Z,99.90
2022-10-05T10:33:33.670Z,99.90
2022-10-05T10:36:13.142Z,99.90
2022-10-05T10:38:54.251Z,99.90
2022-10-05T10:41:57.867Z,99.90
2022-10-05T10:45:05.977Z,99.90
2022-10-05T10:48:00.984Z,99.90
2022-10-05T10:51:18.095Z,99.90
2022-10-05T10:54:53.042Z,99.90
2022-10-05T10:57:33.968Z,99.90
2022-10-05T11:00:40.077Z,99.90
2022-10-05T11:03:50.240Z,99.90
2022-10-05T11:07:06.085Z,99.90
2022-10-05T11:10:20.879Z,99.90
2022-10-05T11:13:35.501Z,99.90
2022-10-05T11:16:50.092Z,99.90
2022-10-05T11:20:10.765Z,99.90
2022-10-05T11:22:59.962Z,99.90
2022-10-05T11:25:54.941Z,99.90
2022-10-05T11:28:48.192Z,99.90
2022-10-05T11:32:16.211Z,99.90
2022-10-05T11:35:17.546Z,99.90
2022-10-05T11:38:09.444Z,99.90
2022-10-05T11:41:25.161Z,99.90
2022-10-05T11:44:25.692Z,99.90
2022-10-05T11:47:01.578Z,99.90
2022-10-05T11:49:41.514Z,99.90
2022-10-05T11:52:20.739Z,99.90
2022-10-05T11:55:16.420Z,99.90
2022-10-05T11:57:52.803Z,99.70
2022-10-05T12:00:23.973Z,99.90
2022-10-05T12:03:44.129Z,99.70
2022-10-05T12:06:36.438Z,99.30
2022-10-05T12:09:22.584Z,99.40
2022-10-05T12:12:11.720Z,99.60
2022-10-05T12:14:57.463Z,99.50
2022-10-05T12:17:34.327Z,99.40
2022-10-05T12:20:09.318Z,99.00
2022-10-05T12:22:42.002Z,99.20
2022-10-05T12:25:35.074Z,99.30
2022-10-05T12:28:13.523Z,98.90
2022-10-05T12:31:08.935Z,98.80
2022-10-05T12:33:47.757Z,99.20
2022-10-05T12:36:20.527Z,99.40
2022-10-05T12:38:57.733Z,99.00
2022-10-05T12:41:33.796Z,98.60
2022-10-05T12:44:17.460Z,98.80
2022-10-05T12:47:01.559Z,98.80
2022-10-05T12:49:44.402Z,98.70
2022-10-05T12:52:30.121Z,98.60
2022-10-05T12:55:05.544Z,98.80
2022-10-05T12:57:44.837Z,98.40
2022-10-05T13:00:22.722Z,98.20
2022-10-05T13:02:58.510Z,97.90
2022-10-05T13:05:35.333Z,97.40
2022-10-05T13:08:22.022Z,96.80
2022-10-05T13:10:57.040Z,97.00
2022-10-05T13:13:47.731Z,96.00
2022-10-05T13:16:32.498Z,96.10
2022-10-05T13:19:27.921Z,96.20
2022-10-05T13:22:36.485Z,95.80
2022-10-05T13:25:21.406Z,95.70
2022-10-05T13:28:11.763Z,95.30
2022-10-05T13:30:45.509Z,95.70
2022-10-05T13:33:26.099Z,94.80
2022-10-05T13:36:06.022Z,94.30
2022-10-05T13:38:53.153Z,93.90
2022-10-05T13:41:34.367Z,94.00
2022-10-05T13:44:19.182Z,93.60
2022-10-05T13:46:51.457Z,93.50
2022-10-05T13:49:29.517Z,93.70
2022-10-05T13:52:12.158Z,94.50
2022-10-05T13:55:01.153Z,94.70
2022-10-05T13:57:48.606Z,94.70
2022-10-05T14:00:24.208Z,94.60
2022-10-05T14:02:57.369Z,94.80
2022-10-05T14:05:29.238Z,94.90
2022-10-05T14:08:17.131Z,94.80
2022-10-05T14:10:48.483Z,94.90
2022-10-05T14:13:26.935Z,95.10
2022-10-05T14:16:15.837Z,94.50
2022-10-05T14:18:56.020Z,94.60
2022-10-05T14:21:31.475Z,95.00
2022-10-05T14:24:32.460Z,94.80
2022-10-05T14:27:24.411Z,94.80
2022-10-05T14:30:01.756Z,94.60
2022-10-05T14:32:34.447Z,94.70
2022-10-05T14:35:15.513Z,94.70
2022-10-05T14:37:56.360Z,94.80
2022-10-05T14:40:29.841Z,94.60
2022-10-05T14:43:01.141Z,94.50
2022-10-05T14:45:31.082Z,94.50
2022-10-05T14:48:12.292Z,94.10
2022-10-05T14:50:56.627Z,94.40
2022-10-05T14:53:38.193Z,94.40
2022-10-05T14:56:33.311Z,94.40
2022-10-05T14:59:28.463Z,94.40
2022-10-05T15:02:12.643Z,94.40
2022-10-05T15:04:47.668Z,94.70
2022-10-05T15:07:26.104Z,94.60
2022-10-05T15:10:30.234Z,94.80
2022-10-05T15:13:11.506Z,94.80
2022-10-05T15:15:50.404Z,95.00
2022-10-05T15:18:32.321Z,95.10
2022-10-05T15:21:29.294Z,95.20
2022-10-05T15:24:03.835Z,95.20
2022-10-05T15:26:48.743Z,95.10
2022-10-05T15:29:54.869Z,95.40
2022-10-05T15:32:42.583Z,95.50
2022-10-05T15:35:42.687Z,95.60
2022-10-05T15:38:21.073Z,95.60
2022-10-05T15:41:05.386Z,95.70
2022-10-05T15:44:10.556Z,95.80
2022-10-05T15:46:49.518Z,96.10
2022-10-05T15:49:28.967Z,96.50
2022-10-05T15:52:07.247Z,96.20
2022-10-05T15:55:25.678Z,96.20
2022-10-05T15:58:08.571Z,96.50
2022-10-05T16:00:47.747Z,96.50
2022-10-05T16:03:24.637Z,96.60
2022-10-05T16:06:18.093Z,97.00
2022-10-05T16:09:03.662Z,96.90
2022-10-05T16:12:04.250Z,96.90
2022-10-05T16:14:49.566Z,97.40
2022-10-05T16:17:33.998Z,97.20
2022-10-05T16:20:22.214Z,97.70
2022-10-05T16:22:59.371Z,97.70
2022-10-05T16:25:36.377Z,97.60
2022-10-05T16:28:21.133Z,98.10
2022-10-05T16:31:00.157Z,97.90
2022-10-05T16:33:47.071Z,98.10
2022-10-05T16:36:32.689Z,98.30
2022-10-05T16:39:08.057Z,98.40
2022-10-05T16:41:47.563Z,98.30
2022-10-05T16:44:29.464Z,98.40
2022-10-05T16:47:05.242Z,98.70
2022-10-05T16:49:51.449Z,98.70
2022-10-05T16:52:23.402Z,99.10
2022-10-05T16:54:57.167Z,99.10
2022-10-05T16:57:30.711Z,99.30
2022-10-05T17:00:21.298Z,99.30
2022-10-05T17:03:34.175Z,99.40
2022-10-05T17:06:44.373Z,99.50
2022-10-05T17:09:35.953Z,99.80
2022-10-05T17:12:24.810Z,99.90
2022-10-05T17:15:10.234Z,99.90
2022-10-05T17:18:06.128Z,99.90
2022-10-05T17:20:55.102Z,99.90
2022-10-05T17:23:53.528Z,99.90
2022-10-05T17:26:58.331Z,99.90
2022-10-05T17:29:47.642Z,99.90
2022-10-05T17:32:41.608Z,99.90
2022-10-05T17:35:51.805Z,99.90
2022-10-05T17:38:23.964Z,99.90
2022-10-05T17:41:21.373Z,99.90
2022-10-05T17:44:19.281Z,99.90
2022-10-05T17:46:50.417Z,99.90
2022-10-05T17:49:48.038Z,99.90
2022-10-05T17:52:42.969Z,99.90
2022-10-05T17:55:47.589Z,99.90
2022-10-05T17:59:10.702Z,99.90
2022-10-05T18:01:40.223Z,99.90
2022-10-05T18:04:38.640Z,99.90
2022-10-05T18:07:23.578Z,99.90
2022-10-05T18:10:17.133Z,99.90
2022-10-05T18:13:10.863Z,99.90
2022-10-05T18:15:46.081Z,99.90
2022-10-05T18:18:56.492Z,99.90
2022-10-05T18:21:40.015Z,99.90
2022-10-05T18:25:03.907Z,99.90
2022-10-05T18:28:12.975Z,99.90
2022-10-05T18:31:04.537Z,99.90
2022-10-05T18:33:51.441Z,99.90
2022-10-05T18:36:55.657Z,99.90
2022-10-05T18:39:44.076Z,99.90
2022-10-05T18:42:27.210Z,99.90
2022-10-05T18:45:04.277Z,99.90
2022-10-05T18:47:45.302Z,99.90
2022-10-05T18:50:27.218Z,99.90
2022-10-05T18:53:13.326Z,99.90
2022-10-05T18:55:48.649Z,99.90
2022-10-05T18:58:26.881Z,99.90
2022-10-05T19:01:20.787Z,99.90
2022-10-05T19:04:13.145Z,99.90
2022-10-05T19:06:53.417Z,99.90
2022-10-05T19:09:43.823Z,99.90
2022-10-05T19:12:21.922Z,99.90
2022-10-05T19:15:02.934Z,99.90
2022-10-05T19:17:54.437Z,99.90
2022-10-05T19:20:34.060Z,99.90
2022-10-05T19:23:29.861Z,99.90
2022-10-05T19:26:12.886Z,99.90
2022-10-05T19:28:54.817Z,99.90
2022-10-05T19:31:38.957Z,99.90
2022-10-05T19:34:23.094Z,99.90
2022-10-05T19:37:04.385Z,99.90
2022-10-05T19:39:48.665Z,99.90
2022-10-05T19:42:47.095Z,99.90
2022-10-05T19:45:23.817Z,99.90
2022-10-05T19:48:10.578Z,99.90
2022-10-05T19:50:39.841Z,99.90
2022-10-05T19:53:19.120Z,99.90
2022-10-05T19:55:47.602Z,99.90
2022-10-05T19:58:22.610Z,99.90
2022-10-05T20:00:59.884Z,99.90
2022-10-05T20:03:30.297Z,99.90
2022-10-05T20:06:01.034Z,99.90
2022-10-05T20:08:41.843Z,99.90
2022-10-05T20:11:14.165Z,99.90
2022-10-05T20:13:45.556Z,99.90
2022-10-05T20:16:46.335Z,99.90
2022-10-05T20:19:55.492Z,99.90
2022-10-05T20:22:34.278Z,99.90
2022-10-05T20:25:07.289Z,99.90
2022-10-05T20:27:47.926Z,99.90
2022-10-05T20:30:18.953Z,99.90
2022-10-05T20:32:49.729Z,99.90
2022-10-05T20:35:19.109Z,99.90
2022-10-05T20:37:47.325Z,99.90
2022-10-05T20:40:19.699Z,99.90
2022-10-05T20:42:48.560Z,99.90
2022-10-05T20:45:17.274Z,99.90
2022-10-05T20:47:46.628Z,99.90
2022-10-05T20:50:17.370Z,99.90
2022-10-05T20:52:45.781Z,99.90
2022-10-05T20:55:14.070Z,99.90
2022-10-05T20:57:45.435Z,99.90
2022-10-05T21:00:15.061Z,99.90
2022-10-05T21:02:43.320Z,99.90
2022-10-05T21:05:11.635Z,99.90
2022-10-05T21:07:40.901Z,99.90
2022-10-05T21:10:10.205Z,99.90
2022-10-05T21:12:38.490Z,99.90
2022-10-05T21:15:10.322Z,99.90
2022-10-05T21:17:38.879Z,99.90
2022-10-05T21:20:11.214Z,99.90
2022-10-05T21:22:39.493Z,99.90
2022-10-05T21:25:08.976Z,99.90
2022-10-05T21:27:37.289Z,99.90
2022-10-05T21:30:08.568Z,99.90
2022-10-05T21:32:39.582Z,99.90
2022-10-05T21:35:11.582Z,99.90
2022-10-05T21:37:39.877Z,99.90
2022-10-05T21:40:09.068Z,99.90
2022-10-05T21:42:37.392Z,99.90
2022-10-05T21:45:08.883Z,99.90
2022-10-05T21:47:37.251Z,99.90
2022-10-05T21:50:08.668Z,99.90
2022-10-05T21:52:37.259Z,99.90
2022-10-05T21:55:07.655Z,99.90
2022-10-05T21:57:36.561Z,99.90
2022-10-05T22:00:09.115Z,99.90
2022-10-05T22:02:37.350Z,99.90
2022-10-05T22:05:06.142Z,99.90
2022-10-05T22:07:35.025Z,99.90
2022-10-05T22:10:03.321Z,99.90
2022-10-05T22:12:32.133Z,99.90
2022-10-05T22:15:00.867Z,99.90
2022-10-05T22:18:30.700Z,99.90
2022-10-05T22:21:57.818Z,99.90
2022-10-05T22:25:24.673Z,99.90
2022-10-05T22:28:55.042Z,99.90
2022-10-05T22:32:21.986Z,99.90
2022-10-05T22:35:50.421Z,99.90
2022-10-05T22:39:17.634Z,99.90
2022-10-05T22:42:44.436Z,99.90
2022-10-05T22:46:11.948Z,99.90
2022-10-05T22:49:38.843Z,99.90
2022-10-05T22:53:06.954Z,99.90
2022-10-05T22:56:33.855Z,99.90
2022-10-05T23:00:00.681Z,99.90
2022-10-05T23:03:27.593Z,99.90
2022-10-05T23:06:58.278Z,99.90
2022-10-05T23:09:37.225Z,99.90
2022-10-05T23:12:29.669Z,99.90
2022-10-05T23:15:00.122Z,99.90
2022-10-05T23:17:57.414Z,99.90
2022-10-05T23:20:26.011Z,99.90
2022-10-05T23:22:54.256Z,99.90
2022-10-05T23:25:23.922Z,99.90
2022-10-05T23:27:52.348Z,99.90
2022-10-05T23:30:20.829Z,99.90
2022-10-05T23:32:49.206Z,99.90
2022-10-05T23:35:17.684Z,99.90
2022-10-05T23:37:46.381Z,99.90
2022-10-05T23:40:15.473Z,99.90
2022-10-05T23:42:45.291Z,99.90
2022-10-05T23:45:14.029Z,99.90
2022-10-05T23:47:42.434Z,99.90
2022-10-05T23:50:11.301Z,99.90
2022-10-05T23:52:39.624Z,99.90
2022-10-05T23:55:08.953Z,99.90
2022-10-05T23:57:38.291Z,99.90
